Аэропорт: Одесса. Одесса

ICAO: UKOO

METAR:
2020-10-19 22:00:00
UKOO 192200Z 00000MPS CAVOK 05/01 Q1027 R16/090060 NOSIG
METAR:
2020-10-19 17:08:00
TAF UKOO 191708Z 1918/2018 32003MPS 2100 BR SCT003 BKN007 SCT020CB PROB40 TEMPO 1920/2006 0300 FG VV002 BECMG 2007/2008 6000 NSW